sensor_id;sensor_type;location;lat;lon;timestamp;P1;durP1;ratioP1;P2;durP2;ratioP2
47545;SDS011;50104;52.002;4.688;2023-02-23T00:02:07;64.43;;;28.48;;
47545;SDS011;50104;52.002;4.688;2023-02-23T00:07:08;62.05;;;27.23;;
47545;SDS011;50104;52.002;4.688;2023-02-23T00:12:09;60.67;;;26.98;;
47545;SDS011;50104;52.002;4.688;2023-02-23T00:17:10;56.42;;;24.98;;
47545;SDS011;50104;52.002;4.688;2023-02-23T00:22:13;61.35;;;26.27;;
47545;SDS011;50104;52.002;4.688;2023-02-23T00:27:14;61.70;;;27.42;;
47545;SDS011;50104;52.002;4.688;2023-02-23T00:32:19;64.63;;;26.48;;
47545;SDS011;50104;52.002;4.688;2023-02-23T00:37:20;56.30;;;26.80;;
47545;SDS011;50104;52.002;4.688;2023-02-23T00:42:22;60.60;;;26.35;;
47545;SDS011;50104;52.002;4.688;2023-02-23T00:47:23;58.00;;;26.05;;
47545;SDS011;50104;52.002;4.688;2023-02-23T00:52:24;55.90;;;26.65;;
47545;SDS011;50104;52.002;4.688;2023-02-23T00:57:25;62.58;;;27.27;;
47545;SDS011;50104;52.002;4.688;2023-02-23T01:02:27;63.60;;;27.85;;
47545;SDS011;50104;52.002;4.688;2023-02-23T01:07:30;61.47;;;27.38;;
47545;SDS011;50104;52.002;4.688;2023-02-23T01:12:31;56.92;;;25.25;;
47545;SDS011;50104;52.002;4.688;2023-02-23T01:17:31;61.10;;;28.60;;
47545;SDS011;50104;52.002;4.688;2023-02-23T01:22:32;59.58;;;26.05;;
47545;SDS011;50104;52.002;4.688;2023-02-23T01:27:33;64.60;;;25.70;;
47545;SDS011;50104;52.002;4.688;2023-02-23T01:32:35;59.00;;;24.95;;
47545;SDS011;50104;52.002;4.688;2023-02-23T01:37:37;55.83;;;26.25;;
47545;SDS011;50104;52.002;4.688;2023-02-23T01:42:43;68.07;;;25.65;;
47545;SDS011;50104;52.002;4.688;2023-02-23T01:47:45;57.78;;;25.08;;
47545;SDS011;50104;52.002;4.688;2023-02-23T01:52:48;64.65;;;27.33;;
47545;SDS011;50104;52.002;4.688;2023-02-23T01:57:52;59.00;;;25.48;;
47545;SDS011;50104;52.002;4.688;2023-02-23T02:02:59;57.47;;;25.65;;
47545;SDS011;50104;52.002;4.688;2023-02-23T02:08:07;57.65;;;24.75;;
47545;SDS011;50104;52.002;4.688;2023-02-23T02:13:09;62.38;;;27.08;;
47545;SDS011;50104;52.002;4.688;2023-02-23T02:18:29;56.55;;;25.73;;
47545;SDS011;50104;52.002;4.688;2023-02-23T02:51:43;60.67;;;26.33;;
47545;SDS011;50104;52.002;4.688;2023-02-23T02:57:15;59.28;;;25.05;;
47545;SDS011;50104;52.002;4.688;2023-02-23T03:02:20;56.72;;;25.17;;
47545;SDS011;50104;52.002;4.688;2023-02-23T03:13:18;59.38;;;26.65;;
47545;SDS011;50104;52.002;4.688;2023-02-23T03:19:17;60.03;;;24.42;;
47545;SDS011;50104;52.002;4.688;2023-02-23T03:30:21;59.92;;;25.83;;
47545;SDS011;50104;52.002;4.688;2023-02-23T03:41:25;52.60;;;24.73;;
47545;SDS011;50104;52.002;4.688;2023-02-23T03:46:48;56.47;;;24.92;;
47545;SDS011;50104;52.002;4.688;2023-02-23T03:52:10;54.60;;;25.67;;
47545;SDS011;50104;52.002;4.688;2023-02-23T03:57:35;57.28;;;24.27;;
47545;SDS011;50104;52.002;4.688;2023-02-23T04:02:57;50.50;;;23.30;;
47545;SDS011;50104;52.002;4.688;2023-02-23T04:08:18;60.03;;;24.30;;
47545;SDS011;50104;52.002;4.688;2023-02-23T04:13:42;55.75;;;25.35;;
47545;SDS011;50104;52.002;4.688;2023-02-23T04:18:48;62.15;;;27.00;;
47545;SDS011;50104;52.002;4.688;2023-02-23T04:23:49;58.15;;;25.25;;
47545;SDS011;50104;52.002;4.688;2023-02-23T04:28:49;65.43;;;26.20;;
47545;SDS011;50104;52.002;4.688;2023-02-23T04:33:50;54.13;;;24.40;;
47545;SDS011;50104;52.002;4.688;2023-02-23T04:38:51;55.10;;;23.45;;
47545;SDS011;50104;52.002;4.688;2023-02-23T04:43:52;55.88;;;23.98;;
47545;SDS011;50104;52.002;4.688;2023-02-23T04:48:52;50.00;;;23.08;;
47545;SDS011;50104;52.002;4.688;2023-02-23T04:53:53;55.33;;;23.63;;
47545;SDS011;50104;52.002;4.688;2023-02-23T04:58:54;55.08;;;22.73;;
47545;SDS011;50104;52.002;4.688;2023-02-23T05:03:54;53.75;;;22.23;;
47545;SDS011;50104;52.002;4.688;2023-02-23T05:08:55;51.65;;;22.55;;
47545;SDS011;50104;52.002;4.688;2023-02-23T05:13:56;49.50;;;23.02;;
47545;SDS011;50104;52.002;4.688;2023-02-23T05:18:57;49.60;;;22.63;;
47545;SDS011;50104;52.002;4.688;2023-02-23T05:23:58;50.83;;;22.17;;
47545;SDS011;50104;52.002;4.688;2023-02-23T05:28:59;52.20;;;23.75;;
47545;SDS011;50104;52.002;4.688;2023-02-23T05:33:59;54.65;;;22.58;;
47545;SDS011;50104;52.002;4.688;2023-02-23T05:39:00;50.92;;;22.60;;
47545;SDS011;50104;52.002;4.688;2023-02-23T05:44:01;59.72;;;22.70;;
47545;SDS011;50104;52.002;4.688;2023-02-23T05:49:02;56.83;;;24.65;;
47545;SDS011;50104;52.002;4.688;2023-02-23T05:54:02;50.50;;;23.33;;
47545;SDS011;50104;52.002;4.688;2023-02-23T05:59:04;64.25;;;23.80;;
47545;SDS011;50104;52.002;4.688;2023-02-23T06:04:05;60.28;;;23.63;;
47545;SDS011;50104;52.002;4.688;2023-02-23T06:09:05;61.53;;;23.35;;
47545;SDS011;50104;52.002;4.688;2023-02-23T06:14:06;68.50;;;23.02;;
47545;SDS011;50104;52.002;4.688;2023-02-23T06:19:07;62.05;;;25.08;;
47545;SDS011;50104;52.002;4.688;2023-02-23T06:24:08;62.63;;;24.35;;
47545;SDS011;50104;52.002;4.688;2023-02-23T06:29:09;68.47;;;23.52;;
47545;SDS011;50104;52.002;4.688;2023-02-23T06:34:10;63.60;;;23.80;;
47545;SDS011;50104;52.002;4.688;2023-02-23T06:39:11;66.13;;;25.13;;
47545;SDS011;50104;52.002;4.688;2023-02-23T06:44:12;66.80;;;24.92;;
47545;SDS011;50104;52.002;4.688;2023-02-23T06:49:13;71.60;;;24.38;;
47545;SDS011;50104;52.002;4.688;2023-02-23T06:54:13;63.58;;;24.20;;
47545;SDS011;50104;52.002;4.688;2023-02-23T06:59:15;62.25;;;22.38;;
47545;SDS011;50104;52.002;4.688;2023-02-23T07:04:15;67.82;;;25.85;;
47545;SDS011;50104;52.002;4.688;2023-02-23T07:09:16;64.38;;;23.50;;
47545;SDS011;50104;52.002;4.688;2023-02-23T07:14:17;64.35;;;23.48;;
47545;SDS011;50104;52.002;4.688;2023-02-23T07:19:18;74.85;;;23.67;;
47545;SDS011;50104;52.002;4.688;2023-02-23T07:24:19;71.72;;;22.42;;
47545;SDS011;50104;52.002;4.688;2023-02-23T07:29:21;71.47;;;23.75;;
47545;SDS011;50104;52.002;4.688;2023-02-23T07:34:23;65.68;;;24.05;;
47545;SDS011;50104;52.002;4.688;2023-02-23T07:39:23;61.83;;;21.30;;
47545;SDS011;50104;52.002;4.688;2023-02-23T07:44:24;64.57;;;22.40;;
47545;SDS011;50104;52.002;4.688;2023-02-23T07:49:25;61.45;;;21.70;;
47545;SDS011;50104;52.002;4.688;2023-02-23T07:54:26;62.72;;;21.83;;
47545;SDS011;50104;52.002;4.688;2023-02-23T07:59:27;60.67;;;22.75;;
47545;SDS011;50104;52.002;4.688;2023-02-23T08:04:27;65.10;;;21.67;;
47545;SDS011;50104;52.002;4.688;2023-02-23T08:09:28;62.45;;;20.85;;
47545;SDS011;50104;52.002;4.688;2023-02-23T08:14:31;61.13;;;20.17;;
47545;SDS011;50104;52.002;4.688;2023-02-23T08:19:32;56.78;;;19.13;;
47545;SDS011;50104;52.002;4.688;2023-02-23T08:24:33;51.75;;;20.63;;
47545;SDS011;50104;52.002;4.688;2023-02-23T08:29:33;49.13;;;17.73;;
47545;SDS011;50104;52.002;4.688;2023-02-23T08:34:38;52.03;;;18.60;;
47545;SDS011;50104;52.002;4.688;2023-02-23T08:39:41;48.15;;;16.73;;
47545;SDS011;50104;52.002;4.688;2023-02-23T08:44:43;44.28;;;16.42;;
47545;SDS011;50104;52.002;4.688;2023-02-23T08:49:43;42.15;;;15.48;;
47545;SDS011;50104;52.002;4.688;2023-02-23T08:54:44;40.13;;;15.57;;
47545;SDS011;50104;52.002;4.688;2023-02-23T08:59:46;38.22;;;13.38;;
47545;SDS011;50104;52.002;4.688;2023-02-23T09:04:46;29.60;;;13.35;;
47545;SDS011;50104;52.002;4.688;2023-02-23T09:09:55;34.38;;;13.95;;
47545;SDS011;50104;52.002;4.688;2023-02-23T09:14:57;35.67;;;13.60;;
47545;SDS011;50104;52.002;4.688;2023-02-23T09:19:57;34.45;;;12.50;;
47545;SDS011;50104;52.002;4.688;2023-02-23T09:24:58;27.90;;;10.50;;
47545;SDS011;50104;52.002;4.688;2023-02-23T09:29:59;29.13;;;11.15;;
47545;SDS011;50104;52.002;4.688;2023-02-23T09:35:00;27.25;;;10.23;;
47545;SDS011;50104;52.002;4.688;2023-02-23T09:40:01;28.23;;;10.85;;
47545;SDS011;50104;52.002;4.688;2023-02-23T09:45:17;20.40;;;9.40;;
47545;SDS011;50104;52.002;4.688;2023-02-23T09:50:57;24.65;;;10.50;;
47545;SDS011;50104;52.002;4.688;2023-02-23T09:56:00;24.23;;;10.63;;
47545;SDS011;50104;52.002;4.688;2023-02-23T10:01:26;22.40;;;10.68;;
47545;SDS011;50104;52.002;4.688;2023-02-23T10:12:05;23.75;;;9.85;;
47545;SDS011;50104;52.002;4.688;2023-02-23T10:17:24;21.15;;;10.25;;
47545;SDS011;50104;52.002;4.688;2023-02-23T10:23:08;22.08;;;9.40;;
47545;SDS011;50104;52.002;4.688;2023-02-23T10:28:17;19.60;;;8.40;;
47545;SDS011;50104;52.002;4.688;2023-02-23T10:33:34;15.93;;;8.00;;
47545;SDS011;50104;52.002;4.688;2023-02-23T10:38:38;19.52;;;9.43;;
47545;SDS011;50104;52.002;4.688;2023-02-23T10:43:40;20.27;;;9.45;;
47545;SDS011;50104;52.002;4.688;2023-02-23T10:48:41;16.67;;;8.40;;
47545;SDS011;50104;52.002;4.688;2023-02-23T10:53:42;16.48;;;8.30;;
47545;SDS011;50104;52.002;4.688;2023-02-23T10:58:47;15.43;;;8.40;;
47545;SDS011;50104;52.002;4.688;2023-02-23T11:03:48;17.55;;;8.32;;
47545;SDS011;50104;52.002;4.688;2023-02-23T11:08:51;15.90;;;7.88;;
47545;SDS011;50104;52.002;4.688;2023-02-23T11:13:52;14.90;;;7.28;;
47545;SDS011;50104;52.002;4.688;2023-02-23T11:18:59;16.27;;;7.30;;
47545;SDS011;50104;52.002;4.688;2023-02-23T11:24:12;14.10;;;7.57;;
47545;SDS011;50104;52.002;4.688;2023-02-23T11:29:29;17.30;;;7.80;;
47545;SDS011;50104;52.002;4.688;2023-02-23T11:34:37;21.50;;;8.27;;
47545;SDS011;50104;52.002;4.688;2023-02-23T11:40:16;18.02;;;8.27;;
47545;SDS011;50104;52.002;4.688;2023-02-23T11:45:23;20.77;;;8.15;;
47545;SDS011;50104;52.002;4.688;2023-02-23T11:50:27;16.52;;;8.52;;
47545;SDS011;50104;52.002;4.688;2023-02-23T11:55:34;15.55;;;8.55;;
47545;SDS011;50104;52.002;4.688;2023-02-23T12:00:37;21.77;;;8.20;;
47545;SDS011;50104;52.002;4.688;2023-02-23T12:05:38;22.17;;;10.15;;
47545;SDS011;50104;52.002;4.688;2023-02-23T12:10:40;18.85;;;9.57;;
47545;SDS011;50104;52.002;4.688;2023-02-23T12:15:57;21.10;;;8.73;;
47545;SDS011;50104;52.002;4.688;2023-02-23T12:26:34;27.27;;;12.38;;
47545;SDS011;50104;52.002;4.688;2023-02-23T12:31:51;24.88;;;10.98;;
47545;SDS011;50104;52.002;4.688;2023-02-23T12:37:13;26.73;;;10.80;;
47545;SDS011;50104;52.002;4.688;2023-02-23T12:42:39;22.60;;;9.27;;
47545;SDS011;50104;52.002;4.688;2023-02-23T12:53:38;19.73;;;9.57;;
47545;SDS011;50104;52.002;4.688;2023-02-23T13:09:47;24.38;;;11.15;;
47545;SDS011;50104;52.002;4.688;2023-02-23T13:20:25;23.60;;;11.65;;
47545;SDS011;50104;52.002;4.688;2023-02-23T13:36:30;17.38;;;8.38;;
47545;SDS011;50104;52.002;4.688;2023-02-23T13:41:34;19.52;;;8.85;;
47545;SDS011;50104;52.002;4.688;2023-02-23T13:46:50;18.52;;;8.82;;
47545;SDS011;50104;52.002;4.688;2023-02-23T13:51:59;23.50;;;11.13;;
47545;SDS011;50104;52.002;4.688;2023-02-23T13:57:15;26.83;;;12.60;;
47545;SDS011;50104;52.002;4.688;2023-02-23T14:07:30;27.10;;;12.55;;
47545;SDS011;50104;52.002;4.688;2023-02-23T14:12:42;26.17;;;12.13;;
47545;SDS011;50104;52.002;4.688;2023-02-23T14:28:23;20.98;;;10.07;;
47545;SDS011;50104;52.002;4.688;2023-02-23T14:38:41;23.60;;;10.65;;
47545;SDS011;50104;52.002;4.688;2023-02-23T14:43:43;26.48;;;11.45;;
47545;SDS011;50104;52.002;4.688;2023-02-23T14:48:54;25.50;;;12.15;;
47545;SDS011;50104;52.002;4.688;2023-02-23T14:54:02;23.95;;;11.63;;
47545;SDS011;50104;52.002;4.688;2023-02-23T14:59:37;21.77;;;10.88;;
47545;SDS011;50104;52.002;4.688;2023-02-23T15:04:40;22.30;;;11.20;;
47545;SDS011;50104;52.002;4.688;2023-02-23T15:09:41;21.83;;;10.20;;
47545;SDS011;50104;52.002;4.688;2023-02-23T15:14:42;20.33;;;10.05;;
47545;SDS011;50104;52.002;4.688;2023-02-23T15:19:45;15.57;;;6.50;;
47545;SDS011;50104;52.002;4.688;2023-02-23T15:24:51;13.15;;;5.70;;
47545;SDS011;50104;52.002;4.688;2023-02-23T15:29:58;14.82;;;6.35;;
47545;SDS011;50104;52.002;4.688;2023-02-23T15:35:17;9.45;;;4.90;;
47545;SDS011;50104;52.002;4.688;2023-02-23T15:40:20;11.88;;;5.07;;
47545;SDS011;50104;52.002;4.688;2023-02-23T15:50:40;10.88;;;3.83;;
47545;SDS011;50104;52.002;4.688;2023-02-23T15:55:42;7.32;;;3.38;;
47545;SDS011;50104;52.002;4.688;2023-02-23T16:00:45;8.50;;;3.25;;
47545;SDS011;50104;52.002;4.688;2023-02-23T16:06:04;10.32;;;3.42;;
47545;SDS011;50104;52.002;4.688;2023-02-23T16:11:20;9.68;;;4.38;;
47545;SDS011;50104;52.002;4.688;2023-02-23T16:16:21;8.18;;;3.20;;
47545;SDS011;50104;52.002;4.688;2023-02-23T16:21:24;10.65;;;3.45;;
47545;SDS011;50104;52.002;4.688;2023-02-23T16:26:26;13.02;;;2.72;;
47545;SDS011;50104;52.002;4.688;2023-02-23T16:36:49;12.73;;;2.90;;
47545;SDS011;50104;52.002;4.688;2023-02-23T16:41:55;12.48;;;3.22;;
47545;SDS011;50104;52.002;4.688;2023-02-23T16:52:02;19.02;;;3.92;;
47545;SDS011;50104;52.002;4.688;2023-02-23T16:57:18;14.63;;;4.30;;
47545;SDS011;50104;52.002;4.688;2023-02-23T17:02:23;16.92;;;3.55;;
47545;SDS011;50104;52.002;4.688;2023-02-23T17:07:24;20.73;;;3.78;;
47545;SDS011;50104;52.002;4.688;2023-02-23T17:12:25;12.18;;;2.90;;
47545;SDS011;50104;52.002;4.688;2023-02-23T17:17:25;12.35;;;2.83;;
47545;SDS011;50104;52.002;4.688;2023-02-23T17:22:26;22.33;;;3.78;;
47545;SDS011;50104;52.002;4.688;2023-02-23T17:27:28;17.73;;;3.50;;
47545;SDS011;50104;52.002;4.688;2023-02-23T17:32:28;28.95;;;4.80;;
47545;SDS011;50104;52.002;4.688;2023-02-23T17:37:29;18.10;;;4.60;;
47545;SDS011;50104;52.002;4.688;2023-02-23T17:42:30;19.25;;;3.83;;
47545;SDS011;50104;52.002;4.688;2023-02-23T17:47:34;27.58;;;4.93;;
47545;SDS011;50104;52.002;4.688;2023-02-23T17:52:38;13.00;;;3.72;;
47545;SDS011;50104;52.002;4.688;2023-02-23T17:57:39;18.20;;;3.35;;
47545;SDS011;50104;52.002;4.688;2023-02-23T18:02:41;17.85;;;4.22;;
47545;SDS011;50104;52.002;4.688;2023-02-23T18:07:43;21.55;;;3.78;;
47545;SDS011;50104;52.002;4.688;2023-02-23T18:12:45;16.65;;;4.15;;
47545;SDS011;50104;52.002;4.688;2023-02-23T18:17:46;18.17;;;4.05;;
47545;SDS011;50104;52.002;4.688;2023-02-23T18:22:47;21.17;;;3.38;;
47545;SDS011;50104;52.002;4.688;2023-02-23T18:27:49;15.85;;;3.72;;
47545;SDS011;50104;52.002;4.688;2023-02-23T18:32:56;15.30;;;3.15;;
47545;SDS011;50104;52.002;4.688;2023-02-23T18:37:59;11.40;;;3.47;;
47545;SDS011;50104;52.002;4.688;2023-02-23T18:43:00;13.02;;;3.25;;
47545;SDS011;50104;52.002;4.688;2023-02-23T18:48:01;15.73;;;2.60;;
47545;SDS011;50104;52.002;4.688;2023-02-23T18:53:03;17.63;;;2.88;;
47545;SDS011;50104;52.002;4.688;2023-02-23T18:58:04;16.33;;;2.75;;
47545;SDS011;50104;52.002;4.688;2023-02-23T19:03:05;12.07;;;2.05;;
47545;SDS011;50104;52.002;4.688;2023-02-23T19:08:06;13.18;;;2.47;;
47545;SDS011;50104;52.002;4.688;2023-02-23T19:13:07;10.65;;;1.80;;
47545;SDS011;50104;52.002;4.688;2023-02-23T19:18:08;9.98;;;2.47;;
47545;SDS011;50104;52.002;4.688;2023-02-23T19:23:09;11.93;;;1.95;;
47545;SDS011;50104;52.002;4.688;2023-02-23T19:28:12;11.50;;;2.22;;
47545;SDS011;50104;52.002;4.688;2023-02-23T19:33:16;19.10;;;2.58;;
47545;SDS011;50104;52.002;4.688;2023-02-23T19:38:17;10.48;;;1.90;;
47545;SDS011;50104;52.002;4.688;2023-02-23T19:43:18;12.15;;;2.08;;
47545;SDS011;50104;52.002;4.688;2023-02-23T19:48:19;14.52;;;2.80;;
47545;SDS011;50104;52.002;4.688;2023-02-23T19:53:21;8.65;;;1.60;;
47545;SDS011;50104;52.002;4.688;2023-02-23T19:58:21;9.88;;;2.22;;
47545;SDS011;50104;52.002;4.688;2023-02-23T20:03:26;8.40;;;1.40;;
47545;SDS011;50104;52.002;4.688;2023-02-23T20:08:27;8.85;;;1.70;;
47545;SDS011;50104;52.002;4.688;2023-02-23T20:13:28;8.80;;;2.05;;
47545;SDS011;50104;52.002;4.688;2023-02-23T20:18:28;13.73;;;2.33;;
47545;SDS011;50104;52.002;4.688;2023-02-23T20:23:32;16.35;;;2.47;;
47545;SDS011;50104;52.002;4.688;2023-02-23T20:28:34;13.00;;;2.53;;
47545;SDS011;50104;52.002;4.688;2023-02-23T20:33:35;5.13;;;1.70;;
47545;SDS011;50104;52.002;4.688;2023-02-23T20:38:36;10.13;;;2.00;;
47545;SDS011;50104;52.002;4.688;2023-02-23T20:43:38;7.95;;;2.35;;
47545;SDS011;50104;52.002;4.688;2023-02-23T20:48:39;8.40;;;1.95;;
47545;SDS011;50104;52.002;4.688;2023-02-23T20:53:40;4.97;;;1.60;;
47545;SDS011;50104;52.002;4.688;2023-02-23T20:58:45;6.13;;;2.55;;
47545;SDS011;50104;52.002;4.688;2023-02-23T21:03:47;8.10;;;2.00;;
47545;SDS011;50104;52.002;4.688;2023-02-23T21:08:50;12.10;;;2.83;;
47545;SDS011;50104;52.002;4.688;2023-02-23T21:13:54;11.80;;;2.93;;
47545;SDS011;50104;52.002;4.688;2023-02-23T21:18:55;10.73;;;2.95;;
47545;SDS011;50104;52.002;4.688;2023-02-23T21:24:03;5.65;;;2.55;;
47545;SDS011;50104;52.002;4.688;2023-02-23T21:29:04;8.80;;;2.85;;
47545;SDS011;50104;52.002;4.688;2023-02-23T21:34:10;5.35;;;2.33;;
47545;SDS011;50104;52.002;4.688;2023-02-23T21:39:14;6.05;;;2.80;;
47545;SDS011;50104;52.002;4.688;2023-02-23T21:44:15;8.48;;;2.25;;
47545;SDS011;50104;52.002;4.688;2023-02-23T21:49:16;11.20;;;3.37;;
47545;SDS011;50104;52.002;4.688;2023-02-23T21:54:18;10.30;;;2.57;;
47545;SDS011;50104;52.002;4.688;2023-02-23T21:59:20;9.27;;;3.03;;
47545;SDS011;50104;52.002;4.688;2023-02-23T22:04:21;17.23;;;3.30;;
47545;SDS011;50104;52.002;4.688;2023-02-23T22:09:22;10.77;;;2.90;;
47545;SDS011;50104;52.002;4.688;2023-02-23T22:14:22;13.43;;;3.07;;
47545;SDS011;50104;52.002;4.688;2023-02-23T22:19:23;8.93;;;3.00;;
47545;SDS011;50104;52.002;4.688;2023-02-23T22:24:24;6.30;;;2.97;;
47545;SDS011;50104;52.002;4.688;2023-02-23T22:29:25;11.70;;;3.70;;
47545;SDS011;50104;52.002;4.688;2023-02-23T22:34:26;13.23;;;3.97;;
47545;SDS011;50104;52.002;4.688;2023-02-23T22:39:27;5.57;;;2.77;;
47545;SDS011;50104;52.002;4.688;2023-02-23T22:44:32;12.47;;;3.53;;
47545;SDS011;50104;52.002;4.688;2023-02-23T22:49:32;10.60;;;2.97;;
47545;SDS011;50104;52.002;4.688;2023-02-23T22:54:33;11.53;;;3.00;;
47545;SDS011;50104;52.002;4.688;2023-02-23T22:59:36;12.70;;;2.90;;
47545;SDS011;50104;52.002;4.688;2023-02-23T23:04:36;10.23;;;3.83;;
47545;SDS011;50104;52.002;4.688;2023-02-23T23:09:37;7.20;;;2.67;;
47545;SDS011;50104;52.002;4.688;2023-02-23T23:14:38;10.13;;;3.13;;
47545;SDS011;50104;52.002;4.688;2023-02-23T23:19:39;17.60;;;4.53;;
47545;SDS011;50104;52.002;4.688;2023-02-23T23:24:40;7.67;;;3.00;;
47545;SDS011;50104;52.002;4.688;2023-02-23T23:29:45;12.43;;;3.43;;
47545;SDS011;50104;52.002;4.688;2023-02-23T23:34:47;13.47;;;3.03;;
47545;SDS011;50104;52.002;4.688;2023-02-23T23:39:48;10.87;;;3.03;;
47545;SDS011;50104;52.002;4.688;2023-02-23T23:44:58;8.63;;;2.67;;
47545;SDS011;50104;52.002;4.688;2023-02-23T23:49:58;10.53;;;2.80;;
47545;SDS011;50104;52.002;4.688;2023-02-23T23:55:01;6.90;;;2.50;;
